createdAt,value
2022-12-11T00:03:21.206Z,99366.13
2022-12-11T00:08:23.026Z,99379.47
2022-12-11T00:13:24.737Z,99383.97
2022-12-11T00:18:26.557Z,99387.16
2022-12-11T00:23:28.627Z,99369.78
2022-12-11T00:28:30.213Z,99374.81
2022-12-11T00:33:31.859Z,99372.69
2022-12-11T00:38:33.554Z,99380.44
2022-12-11T00:43:35.603Z,99377.69
2022-12-11T00:48:37.446Z,99383.25
2022-12-11T00:53:39.620Z,99392.81
2022-12-11T00:58:41.294Z,99406.44
2022-12-11T01:03:43.303Z,99390.19
2022-12-11T01:08:46.308Z,99408.47
2022-12-11T01:13:48.039Z,99405.81
2022-12-11T01:18:49.698Z,99373.41
2022-12-11T01:23:51.999Z,99362.09
2022-12-11T01:28:53.672Z,99372.00
2022-12-11T01:33:56.027Z,99359.78
2022-12-11T01:38:58.139Z,99367.31
2022-12-11T01:44:31.262Z,99324.34
2022-12-11T01:49:33.282Z,99337.22
2022-12-11T01:54:35.447Z,99342.66
2022-12-11T01:59:40.291Z,99358.81
2022-12-11T02:04:43.041Z,99384.78
2022-12-11T02:09:46.653Z,99359.38
2022-12-11T02:14:53.816Z,99333.31
2022-12-11T02:20:15.455Z,99326.16
2022-12-11T02:25:30.047Z,99367.75
2022-12-11T02:30:34.662Z,99335.81
2022-12-11T02:35:42.577Z,99331.53
2022-12-11T02:40:46.973Z,99353.94
2022-12-11T02:45:50.615Z,99289.69
2022-12-11T02:50:56.275Z,99269.75
2022-12-11T02:56:24.606Z,99284.47
2022-12-11T03:01:27.439Z,99240.25
2022-12-11T03:06:37.474Z,99259.97
2022-12-11T03:11:39.101Z,99290.81
2022-12-11T03:17:05.072Z,99282.34
2022-12-11T03:22:18.963Z,99222.69
2022-12-11T03:27:26.238Z,99190.72
2022-12-11T03:32:42.254Z,99247.53
2022-12-11T03:37:48.084Z,99254.09
2022-12-11T03:42:53.775Z,99220.38
2022-12-11T03:47:58.088Z,99263.91
2022-12-11T03:53:01.494Z,99241.66
2022-12-11T03:58:03.403Z,99242.00
2022-12-11T04:03:14.459Z,99274.16
2022-12-11T04:08:17.758Z,99296.03
2022-12-11T04:13:19.479Z,99227.78
2022-12-11T04:18:39.953Z,99202.88
2022-12-11T04:24:00.233Z,99225.00
2022-12-11T04:29:01.872Z,99219.88
2022-12-11T04:34:03.603Z,99224.19
2022-12-11T04:39:06.175Z,99243.75
2022-12-11T04:44:08.298Z,99250.75
2022-12-11T04:49:10.231Z,99263.34
2022-12-11T04:54:11.834Z,99257.25
2022-12-11T04:59:13.482Z,99243.13
2022-12-11T05:04:15.107Z,99279.09
2022-12-11T05:09:16.900Z,99296.50
2022-12-11T05:14:18.968Z,99218.78
2022-12-11T05:19:20.550Z,99281.91
2022-12-11T05:24:22.256Z,99262.69
2022-12-11T05:29:23.883Z,99188.13
2022-12-11T05:34:25.496Z,99202.13
2022-12-11T05:39:27.086Z,99207.66
2022-12-11T05:44:28.778Z,99201.47
2022-12-11T05:49:31.144Z,99240.66
2022-12-11T05:54:32.985Z,99186.31
2022-12-11T05:59:34.676Z,99228.13
2022-12-11T06:04:36.247Z,99186.22
2022-12-11T06:09:37.905Z,99207.81
2022-12-11T06:14:41.015Z,99218.53
2022-12-11T06:19:42.635Z,99181.88
2022-12-11T06:24:44.271Z,99191.53
2022-12-11T06:29:46.627Z,99164.25
2022-12-11T06:34:48.316Z,99183.13
2022-12-11T06:39:49.879Z,99212.22
2022-12-11T06:44:51.455Z,99206.22
2022-12-11T06:49:54.048Z,99242.72
2022-12-11T06:54:56.218Z,99216.81
2022-12-11T06:59:57.786Z,99244.81
2022-12-11T07:04:59.418Z,99258.75
2022-12-11T07:10:07.560Z,99251.97
2022-12-11T07:15:10.728Z,99225.06
2022-12-11T07:20:12.697Z,99221.63
2022-12-11T07:25:14.871Z,99267.06
2022-12-11T07:30:16.623Z,99309.13
2022-12-11T07:35:18.208Z,99260.41
2022-12-11T07:40:19.768Z,99293.75
2022-12-11T07:45:21.514Z,99295.44
2022-12-11T07:50:23.422Z,99276.66
2022-12-11T07:55:25.157Z,99243.03
2022-12-11T08:00:26.831Z,99249.00
2022-12-11T08:05:28.582Z,99242.72
2022-12-11T08:10:30.215Z,99267.78
2022-12-11T08:15:31.802Z,99257.16
2022-12-11T08:20:33.770Z,99276.13
2022-12-11T08:25:36.086Z,99301.47
2022-12-11T08:30:40.078Z,99269.53
2022-12-11T08:35:44.085Z,99254.94
2022-12-11T08:40:45.755Z,99262.25
2022-12-11T08:45:47.427Z,99271.59
2022-12-11T08:50:49.039Z,99257.97
2022-12-11T08:55:53.282Z,99271.03
2022-12-11T09:00:54.928Z,99235.34
2022-12-11T09:05:56.544Z,99304.13
2022-12-11T09:11:03.776Z,99269.06
2022-12-11T09:16:07.799Z,99260.28
2022-12-11T09:21:13.612Z,99296.50
2022-12-11T09:26:17.420Z,99284.88
2022-12-11T09:31:39.311Z,99323.69
2022-12-11T09:36:42.216Z,99297.03
2022-12-11T09:41:58.373Z,99243.75
2022-12-11T09:47:00.668Z,99234.41
2022-12-11T09:52:18.747Z,99254.25
2022-12-11T09:58:01.724Z,99281.00
2022-12-11T10:03:15.683Z,99271.06
2022-12-11T10:08:29.413Z,99218.41
2022-12-11T10:13:45.589Z,99237.53
2022-12-11T10:18:48.886Z,99184.63
2022-12-11T10:24:00.767Z,99224.13
2022-12-11T10:29:02.813Z,99220.50
2022-12-11T10:34:14.526Z,99169.19
2022-12-11T10:39:19.161Z,99175.44
2022-12-11T10:44:29.468Z,99230.56
2022-12-11T10:49:33.866Z,99193.00
2022-12-11T10:54:42.385Z,99213.72
2022-12-11T10:59:43.971Z,99138.66
2022-12-11T11:06:20.669Z,99181.41
2022-12-11T11:11:27.111Z,99200.63
2022-12-11T11:16:29.307Z,99197.69
2022-12-11T11:21:32.706Z,99152.59
2022-12-11T11:27:04.759Z,99175.56
2022-12-11T11:31:56.647Z,99155.56
2022-12-11T11:37:05.582Z,99149.00
2022-12-11T11:42:30.208Z,99175.47
2022-12-11T11:47:41.210Z,99175.91
2022-12-11T11:52:56.164Z,99151.28
2022-12-11T11:58:05.231Z,99159.59
2022-12-11T12:03:18.655Z,99137.06
2022-12-11T12:08:25.971Z,99105.34
2022-12-11T12:13:53.718Z,99135.75
2022-12-11T12:18:58.160Z,99123.94
2022-12-11T12:24:02.859Z,99131.97
2022-12-11T12:29:25.930Z,99156.84
2022-12-11T12:35:05.339Z,99120.56
2022-12-11T12:40:19.127Z,99105.28
2022-12-11T12:45:30.204Z,99114.81
2022-12-11T12:50:38.851Z,99104.38
2022-12-11T12:55:40.699Z,99098.25
2022-12-11T13:00:44.136Z,99145.09
2022-12-11T13:06:28.659Z,99119.84
2022-12-11T13:11:34.887Z,99129.81
2022-12-11T13:16:39.328Z,99154.38
2022-12-11T13:21:41.104Z,99115.53
2022-12-11T13:26:42.966Z,99130.63
2022-12-11T13:31:45.712Z,99217.53
2022-12-11T13:36:53.339Z,99229.56
2022-12-11T13:42:01.610Z,99113.00
2022-12-11T13:47:04.542Z,99160.84
2022-12-11T13:52:07.440Z,99130.16
2022-12-11T13:57:09.088Z,99195.81
2022-12-11T14:02:19.680Z,99156.00
2022-12-11T14:07:28.346Z,99187.94
2022-12-11T14:12:31.210Z,99211.69
2022-12-11T14:17:35.306Z,99192.78
2022-12-11T14:22:37.067Z,99236.66
2022-12-11T14:27:50.540Z,99252.53
2022-12-11T14:32:56.952Z,99220.06
2022-12-11T14:38:02.698Z,99172.06
2022-12-11T14:43:23.436Z,99235.78
2022-12-11T14:48:39.199Z,99226.84
2022-12-11T14:53:46.599Z,99201.88
2022-12-11T14:58:59.754Z,99232.63
2022-12-11T15:04:27.940Z,99244.00
2022-12-11T15:09:37.791Z,99242.53
2022-12-11T15:15:00.962Z,99258.13
2022-12-11T15:20:25.991Z,99224.41
2022-12-11T15:25:29.929Z,99272.78
2022-12-11T15:30:34.807Z,99291.00
2022-12-11T15:35:47.136Z,99261.56
2022-12-11T15:40:49.071Z,99269.09
2022-12-11T15:45:50.875Z,99245.81
2022-12-11T15:50:52.652Z,99231.91
2022-12-11T15:55:54.530Z,99225.59
2022-12-11T16:00:57.872Z,99253.44
2022-12-11T16:05:59.583Z,99227.91
2022-12-11T16:11:01.402Z,99252.50
2022-12-11T16:16:03.135Z,99246.06
2022-12-11T16:21:06.479Z,99247.25
2022-12-11T16:26:09.697Z,99335.84
2022-12-11T16:31:13.049Z,99226.53
2022-12-11T16:36:17.061Z,99312.50
2022-12-11T16:41:18.796Z,99254.56
2022-12-11T16:46:22.050Z,99302.78
2022-12-11T16:51:24.354Z,99313.50
2022-12-11T16:56:26.931Z,99266.47
2022-12-11T17:01:28.684Z,99312.94
2022-12-11T17:06:30.400Z,99248.00
2022-12-11T17:11:32.259Z,99186.31
2022-12-11T17:16:34.182Z,99229.13
2022-12-11T17:21:35.929Z,99191.31
2022-12-11T17:26:39.048Z,99208.22
2022-12-11T17:31:41.128Z,99222.47
2022-12-11T17:36:43.053Z,99281.69
2022-12-11T17:41:44.732Z,99214.81
2022-12-11T17:46:46.874Z,99251.25
2022-12-11T17:51:48.589Z,99183.09
2022-12-11T17:56:50.567Z,99235.34
2022-12-11T18:01:52.288Z,99256.84
2022-12-11T18:06:54.166Z,99255.38
2022-12-11T18:11:55.814Z,99187.00
2022-12-11T18:16:57.751Z,99184.38
2022-12-11T18:21:59.466Z,99194.41
2022-12-11T18:27:01.214Z,99202.53
2022-12-11T18:32:03.350Z,99237.47
2022-12-11T18:37:05.216Z,99195.56
2022-12-11T18:47:28.648Z,99201.53
2022-12-11T18:52:30.404Z,99231.75
2022-12-11T18:57:32.561Z,99244.41
2022-12-11T19:02:35.444Z,99280.94
2022-12-11T19:07:37.206Z,99246.69
2022-12-11T19:12:38.896Z,99267.53
2022-12-11T19:17:43.027Z,99293.56
2022-12-11T19:22:45.691Z,99291.69
2022-12-11T19:27:47.452Z,99260.59
2022-12-11T19:32:49.331Z,99260.72
2022-12-11T19:37:51.028Z,99253.69
2022-12-11T19:42:52.854Z,99236.28
2022-12-11T19:47:55.836Z,99247.28
2022-12-11T19:52:57.751Z,99298.03
2022-12-11T19:58:00.705Z,99250.38
2022-12-11T20:03:02.349Z,99248.22
2022-12-11T20:08:35.330Z,99287.84
2022-12-11T20:13:26.131Z,99257.41
2022-12-11T20:18:27.936Z,99271.50
2022-12-11T20:23:30.007Z,99233.28
2022-12-11T20:28:31.870Z,99254.66
2022-12-11T20:33:34.089Z,99211.72
2022-12-11T20:38:37.284Z,99234.97
2022-12-11T20:43:39.475Z,99216.09
2022-12-11T20:48:43.684Z,99227.88
2022-12-11T20:53:45.487Z,99257.81
2022-12-11T20:58:47.290Z,99277.72
2022-12-11T21:03:49.328Z,99264.97
2022-12-11T21:08:51.200Z,99361.78
2022-12-11T21:13:53.272Z,99243.09
2022-12-11T21:18:56.841Z,99328.00
2022-12-11T21:23:58.887Z,99230.56
2022-12-11T21:29:00.584Z,99316.13
2022-12-11T21:34:02.533Z,99259.91
2022-12-11T21:39:04.628Z,99316.00
2022-12-11T21:49:28.243Z,99273.56
2022-12-11T21:54:30.040Z,99331.13
2022-12-11T21:59:31.921Z,99307.16
2022-12-11T22:04:33.642Z,99354.59
2022-12-11T22:09:35.408Z,99389.56
2022-12-11T22:14:37.170Z,99323.66
2022-12-11T22:19:38.847Z,99319.00
2022-12-11T22:24:41.151Z,99329.03
2022-12-11T22:29:42.870Z,99367.63
2022-12-11T22:34:44.579Z,99310.25
2022-12-11T22:39:46.231Z,99350.47
2022-12-11T22:44:47.900Z,99377.28
2022-12-11T22:49:49.891Z,99355.41
2022-12-11T22:54:51.539Z,99343.19
2022-12-11T22:59:53.331Z,99287.13
2022-12-11T23:04:55.000Z,99321.84
2022-12-11T23:09:56.654Z,99288.69
2022-12-11T23:15:00.409Z,99332.00
2022-12-11T23:20:04.096Z,99328.06
2022-12-11T23:25:06.141Z,99279.75
2022-12-11T23:30:08.892Z,99283.91
2022-12-11T23:35:10.880Z,99287.81
2022-12-11T23:40:14.605Z,99320.50
2022-12-11T23:45:16.340Z,99296.00
2022-12-11T23:50:18.496Z,99310.69
2022-12-11T23:55:20.850Z,99370.16
